Time;durP1;ratioP1;P1;durP2;ratioP2;P2;SDS_P1;SDS_P2;PMS_P1;PMS_P2;Temp;Humidity;BMP_temperature;BMP_pressure;BME280_temperature;BME280_humidity;BME280_pressure;Samples;Min_cycle;Max_cycle;Signal;HPM_P1;HPM_P2
2024/01/21 00:01:13;;;;;;;41.60;11.73;;;;;;;;;;6179315;28;20042;-78
2024/01/21 00:04:15;;;;;;;36.90;11.07;;;;;;;;;;6151824;28;20054;-79
2024/01/21 00:07:16;;;;;;;31.80;10.15;;;;;;;;;;6162667;28;20057;-78
2024/01/21 00:10:18;;;;;;;46.08;15.10;;;;;;;;;;6164742;28;20054;-80
2024/01/21 00:13:20;;;;;;;35.53;13.98;;;;;;;;;;6176027;28;20049;-78
2024/01/21 00:16:21;;;;;;;35.35;13.43;;;;;;;;;;6180241;28;20554;-78
2024/01/21 00:19:23;;;;;;;38.35;12.90;;;;;;;;;;6168698;28;20046;-78
2024/01/21 00:22:25;;;;;;;30.63;9.93;;;;;;;;;;6188453;28;20049;-78
2024/01/21 00:25:27;;;;;;;36.60;11.35;;;;;;;;;;6177167;28;20046;-77
2024/01/21 00:28:29;;;;;;;35.13;10.90;;;;;;;;;;6192725;28;20042;-78
2024/01/21 00:31:31;;;;;;;37.50;13.10;;;;;;;;;;6182416;28;20047;-78
2024/01/21 00:34:32;;;;;;;34.83;12.52;;;;;;;;;;6178231;28;20053;-79
2024/01/21 00:37:34;;;;;;;42.30;13.00;;;;;;;;;;6185697;28;20050;-78
2024/01/21 00:40:36;;;;;;;37.08;11.98;;;;;;;;;;6176420;28;20074;-78
2024/01/21 00:43:41;;;;;;;33.25;14.07;;;;;;;;;;6154160;28;20112;-78
2024/01/21 00:46:43;;;;;;;37.10;12.40;;;;;;;;;;6179324;28;20052;-78
2024/01/21 00:49:45;;;;;;;36.97;12.77;;;;;;;;;;6151032;28;20050;-79
2024/01/21 00:52:47;;;;;;;31.95;10.85;;;;;;;;;;6182205;28;20116;-78
2024/01/21 00:55:48;;;;;;;40.63;13.27;;;;;;;;;;6167397;28;20054;-77
2024/01/21 00:58:50;;;;;;;32.03;11.73;;;;;;;;;;6182481;28;20132;-80
2024/01/21 01:01:52;;;;;;;33.05;11.18;;;;;;;;;;6179796;28;20175;-76
2024/01/21 01:04:53;;;;;;;29.55;12.23;;;;;;;;;;6185090;28;20043;-78
2024/01/21 01:07:55;;;;;;;31.67;10.63;;;;;;;;;;6174215;28;20046;-77
2024/01/21 01:10:57;;;;;;;33.60;10.43;;;;;;;;;;6170244;28;20129;-78
2024/01/21 01:13:58;;;;;;;30.77;11.85;;;;;;;;;;6172553;28;20046;-79
2024/01/21 01:17:00;;;;;;;31.10;11.50;;;;;;;;;;6178167;28;20057;-78
2024/01/21 01:20:02;;;;;;;33.55;11.77;;;;;;;;;;6173276;28;20041;-78
2024/01/21 01:23:05;;;;;;;33.78;11.07;;;;;;;;;;6187889;28;20050;-78
2024/01/21 01:26:07;;;;;;;29.75;9.90;;;;;;;;;;6157679;28;20050;-75
2024/01/21 01:29:09;;;;;;;29.13;11.00;;;;;;;;;;6173770;28;20488;-78
2024/01/21 01:32:11;;;;;;;32.55;11.38;;;;;;;;;;6160738;28;20043;-77
2024/01/21 01:35:13;;;;;;;36.20;12.82;;;;;;;;;;6183925;28;20074;-77
2024/01/21 01:38:15;;;;;;;36.35;12.63;;;;;;;;;;6190995;28;20424;-77
2024/01/21 01:41:16;;;;;;;34.05;12.57;;;;;;;;;;6157238;28;20431;-76
2024/01/21 01:44:18;;;;;;;60.95;17.98;;;;;;;;;;6183823;28;20097;-78
2024/01/21 01:47:19;;;;;;;36.28;11.73;;;;;;;;;;6173889;28;20046;-78
2024/01/21 01:50:22;;;;;;;31.73;10.98;;;;;;;;;;6179545;28;20057;-78
2024/01/21 01:53:24;;;;;;;61.83;16.15;;;;;;;;;;6207150;28;20046;-78
2024/01/21 01:56:25;;;;;;;30.60;11.07;;;;;;;;;;6157893;28;20065;-78
2024/01/21 01:59:29;;;;;;;57.67;15.50;;;;;;;;;;6180698;28;20058;-77
2024/01/21 02:02:31;;;;;;;41.63;12.60;;;;;;;;;;6187013;28;20494;-79
2024/01/21 02:05:33;;;;;;;44.85;13.88;;;;;;;;;;6184586;28;20042;-78
2024/01/21 02:08:35;;;;;;;43.63;13.98;;;;;;;;;;6190225;28;20073;-78
2024/01/21 02:11:36;;;;;;;31.95;11.65;;;;;;;;;;6171821;28;20434;-79
2024/01/21 02:14:38;;;;;;;28.88;11.35;;;;;;;;;;6176128;28;20085;-77
2024/01/21 02:17:40;;;;;;;23.10;9.32;;;;;;;;;;6185209;28;20057;-78
2024/01/21 02:20:42;;;;;;;32.72;10.40;;;;;;;;;;6179487;28;20065;-77
2024/01/21 02:23:43;;;;;;;27.80;9.32;;;;;;;;;;6176604;28;20054;-79
2024/01/21 02:26:45;;;;;;;34.35;11.27;;;;;;;;;;6182737;28;20081;-79
2024/01/21 02:29:47;;;;;;;27.50;9.85;;;;;;;;;;6177368;28;20610;-77
2024/01/21 02:32:48;;;;;;;28.10;8.63;;;;;;;;;;6179063;28;20057;-79
2024/01/21 02:35:50;;;;;;;30.67;10.40;;;;;;;;;;6185808;28;20130;-78
2024/01/21 02:38:52;;;;;;;28.80;9.82;;;;;;;;;;6176208;28;20058;-77
2024/01/21 02:41:54;;;;;;;31.75;10.70;;;;;;;;;;6170699;28;20050;-78
2024/01/21 02:44:56;;;;;;;36.28;10.80;;;;;;;;;;6181011;28;20039;-76
2024/01/21 02:47:57;;;;;;;27.52;10.45;;;;;;;;;;6167544;28;20050;-77
2024/01/21 02:50:59;;;;;;;31.10;9.82;;;;;;;;;;6187133;28;20782;-78
2024/01/21 02:54:01;;;;;;;31.83;12.20;;;;;;;;;;6185964;28;20504;-77
2024/01/21 02:57:03;;;;;;;32.63;9.55;;;;;;;;;;6164990;28;20054;-79
2024/01/21 03:00:05;;;;;;;28.52;10.88;;;;;;;;;;6161052;28;20184;-78
2024/01/21 03:03:09;;;;;;;27.88;10.85;;;;;;;;;;6184167;28;20051;-77
2024/01/21 03:06:12;;;;;;;25.08;9.32;;;;;;;;;;6186182;28;20042;-78
2024/01/21 03:09:13;;;;;;;23.27;9.63;;;;;;;;;;6182878;28;20046;-79
2024/01/21 03:12:15;;;;;;;30.83;10.23;;;;;;;;;;6191079;28;20061;-78
2024/01/21 03:15:17;;;;;;;28.92;10.68;;;;;;;;;;6171267;28;20049;-78
2024/01/21 03:18:19;;;;;;;29.13;10.52;;;;;;;;;;6176220;28;20069;-77
2024/01/21 03:21:20;;;;;;;30.75;8.45;;;;;;;;;;6181814;28;20049;-78
2024/01/21 03:24:22;;;;;;;15.80;7.20;;;;;;;;;;6177547;28;20129;-77
2024/01/21 03:27:24;;;;;;;28.65;9.85;;;;;;;;;;6170121;28;20050;-79
2024/01/21 03:30:26;;;;;;;27.90;9.13;;;;;;;;;;6174650;28;20042;-78
2024/01/21 03:33:28;;;;;;;25.42;10.00;;;;;;;;;;6196110;28;20092;-78
2024/01/21 03:36:30;;;;;;;26.55;9.35;;;;;;;;;;6185114;28;20046;-78
2024/01/21 03:39:32;;;;;;;20.10;8.57;;;;;;;;;;6178121;28;20384;-77
2024/01/21 03:42:33;;;;;;;21.70;8.60;;;;;;;;;;6168779;28;20122;-78
2024/01/21 03:45:35;;;;;;;29.52;9.70;;;;;;;;;;6179690;28;20050;-76
2024/01/21 03:48:37;;;;;;;26.25;9.07;;;;;;;;;;6171736;28;20057;-77
2024/01/21 03:51:39;;;;;;;25.30;8.30;;;;;;;;;;6194730;28;20037;-78
2024/01/21 03:54:40;;;;;;;24.90;9.35;;;;;;;;;;6176390;28;20145;-77
2024/01/21 03:57:42;;;;;;;27.48;8.80;;;;;;;;;;6179729;28;21250;-77
2024/01/21 04:00:44;;;;;;;25.80;9.18;;;;;;;;;;6164557;28;20089;-78
2024/01/21 04:03:46;;;;;;;21.90;8.32;;;;;;;;;;6172841;28;20053;-78
2024/01/21 04:06:48;;;;;;;28.30;9.50;;;;;;;;;;6184849;28;20047;-77
2024/01/21 04:09:50;;;;;;;24.95;9.75;;;;;;;;;;6174238;28;20065;-78
2024/01/21 04:12:51;;;;;;;19.70;8.18;;;;;;;;;;6172498;28;20049;-77
2024/01/21 04:15:53;;;;;;;22.48;9.02;;;;;;;;;;6174754;28;20047;-78
2024/01/21 04:18:55;;;;;;;26.17;10.00;;;;;;;;;;6169779;28;20043;-78
2024/01/21 04:21:59;;;;;;;30.35;9.55;;;;;;;;;;6180897;28;20049;-78
2024/01/21 04:25:02;;;;;;;29.60;9.95;;;;;;;;;;6163376;28;20050;-77
2024/01/21 04:28:04;;;;;;;30.83;9.43;;;;;;;;;;6171052;28;20157;-77
2024/01/21 04:31:06;;;;;;;26.00;9.75;;;;;;;;;;6177380;28;20043;-78
2024/01/21 04:34:08;;;;;;;28.10;9.38;;;;;;;;;;6170660;28;20053;-77
2024/01/21 04:37:10;;;;;;;26.70;9.18;;;;;;;;;;6178694;28;20050;-79
2024/01/21 04:40:12;;;;;;;23.92;9.68;;;;;;;;;;6166449;28;20043;-78
2024/01/21 04:43:14;;;;;;;26.42;8.38;;;;;;;;;;6166764;28;20065;-78
2024/01/21 04:46:16;;;;;;;22.25;8.70;;;;;;;;;;6160226;28;20043;-78
2024/01/21 04:49:18;;;;;;;31.57;9.77;;;;;;;;;;6165606;28;20050;-78
2024/01/21 04:52:20;;;;;;;26.25;8.93;;;;;;;;;;6182366;28;20050;-78
2024/01/21 04:55:22;;;;;;;24.23;8.50;;;;;;;;;;6148803;28;20633;-78
2024/01/21 04:58:24;;;;;;;25.40;9.80;;;;;;;;;;6170719;28;20047;-78
2024/01/21 05:01:26;;;;;;;27.90;10.73;;;;;;;;;;6181920;28;20038;-79
2024/01/21 05:04:28;;;;;;;;;;;;;;;;;;6179622;28;20494;-78
2024/01/21 05:07:30;;;;;;;27.92;8.60;;;;;;;;;;6189984;28;19940;-77
2024/01/21 05:10:32;;;;;;;23.17;8.88;;;;;;;;;;6177715;28;20069;-77
2024/01/21 05:13:34;;;;;;;24.50;8.57;;;;;;;;;;6189991;28;20519;-77
2024/01/21 05:16:51;;;;;;;17.90;7.72;;;;;;;;;;6205698;28;22179;-77
2024/01/21 05:19:53;;;;;;;20.85;7.85;;;;;;;;;;6167240;28;20065;-76
2024/01/21 05:22:54;;;;;;;24.88;8.32;;;;;;;;;;6179310;28;20046;-77
2024/01/21 05:25:56;;;;;;;16.67;7.78;;;;;;;;;;6176931;28;20065;-78
2024/01/21 05:28:59;;;;;;;22.52;8.90;;;;;;;;;;6176893;28;20504;-78
2024/01/21 05:32:01;;;;;;;19.70;7.90;;;;;;;;;;6175797;28;20034;-76
2024/01/21 05:35:07;;;;;;;20.15;8.15;;;;;;;;;;6222233;22;20052;-86
2024/01/21 05:38:31;;;;;;;29.48;10.32;;;;;;;;;;6172510;28;20596;-86
2024/01/21 05:41:57;;;;;;;22.05;8.65;;;;;;;;;;6160267;28;20052;-87
2024/01/21 05:45:03;;;;;;;21.92;8.85;;;;;;;;;;6174821;28;20050;-87
2024/01/21 05:48:25;;;;;;;21.33;8.02;;;;;;;;;;6176283;28;20448;-87
2024/01/21 05:51:39;;;;;;;18.70;8.25;;;;;;;;;;6152792;28;21067;-87
2024/01/21 05:55:15;;;;;;;21.10;8.63;;;;;;;;;;6138583;28;20719;-86
2024/01/21 05:58:38;;;;;;;14.18;7.47;;;;;;;;;;6171184;28;20083;-87
2024/01/21 06:02:39;;;;;;;20.80;8.02;;;;;;;;;;6114008;28;20050;-88
2024/01/21 06:06:10;;;;;;;41.35;15.40;;;;;;;;;;6133836;28;20111;-86
2024/01/21 06:09:21;;;;;;;24.13;9.32;;;;;;;;;;6148684;28;20048;-86
2024/01/21 06:12:28;;;;;;;19.73;9.68;;;;;;;;;;6164663;28;20062;-86
2024/01/21 06:15:31;;;;;;;25.92;10.80;;;;;;;;;;6193214;28;20057;-88
2024/01/21 06:18:36;;;;;;;24.15;10.15;;;;;;;;;;6206882;28;21283;-86
2024/01/21 06:21:44;;;;;;;20.48;9.05;;;;;;;;;;6205369;28;20053;-87
2024/01/21 06:24:54;;;;;;;18.63;8.10;;;;;;;;;;6214877;28;20068;-87
2024/01/21 06:27:58;;;;;;;18.45;7.65;;;;;;;;;;6207608;28;20049;-87
2024/01/21 06:31:10;;;;;;;25.20;9.90;;;;;;;;;;6190944;28;20534;-87
2024/01/21 06:34:14;;;;;;;28.48;9.30;;;;;;;;;;6205524;28;20045;-86
2024/01/21 06:37:21;;;;;;;21.65;7.85;;;;;;;;;;6198240;28;20046;-83
2024/01/21 06:40:27;;;;;;;24.77;9.50;;;;;;;;;;6195894;28;20051;-86
2024/01/21 06:43:33;;;;;;;19.52;9.35;;;;;;;;;;6169329;28;20123;-88
2024/01/21 06:46:41;;;;;;;22.45;8.35;;;;;;;;;;6188442;28;20053;-86
2024/01/21 06:49:43;;;;;;;21.20;8.70;;;;;;;;;;6180993;28;20057;-86
2024/01/21 06:52:52;;;;;;;20.25;7.78;;;;;;;;;;6208366;28;20049;-86
2024/01/21 06:55:57;;;;;;;32.05;11.82;;;;;;;;;;6207104;28;20144;-87
2024/01/21 06:59:08;;;;;;;27.52;9.65;;;;;;;;;;6208934;28;20050;-86
2024/01/21 07:02:14;;;;;;;19.38;8.15;;;;;;;;;;6194984;28;20061;-86
2024/01/21 07:05:23;;;;;;;46.38;16.70;;;;;;;;;;6171855;28;20129;-85
2024/01/21 07:08:30;;;;;;;73.47;26.67;;;;;;;;;;6136748;28;20035;-87
2024/01/21 07:11:42;;;;;;;22.83;8.75;;;;;;;;;;6141735;28;20109;-87
2024/01/21 07:14:53;;;;;;;30.83;12.63;;;;;;;;;;6205726;28;20128;-86
2024/01/21 07:17:57;;;;;;;26.20;11.75;;;;;;;;;;6197355;28;20053;-87
2024/01/21 07:21:08;;;;;;;29.92;12.23;;;;;;;;;;6188233;28;20073;-88
2024/01/21 07:24:09;;;;;;;35.97;11.60;;;;;;;;;;6203024;28;20076;-86
2024/01/21 07:27:14;;;;;;;20.67;9.02;;;;;;;;;;6204222;28;20052;-87
2024/01/21 07:30:26;;;;;;;25.65;10.80;;;;;;;;;;6207447;28;20326;-87
2024/01/21 07:33:34;;;;;;;29.10;11.32;;;;;;;;;;6201582;28;20042;-86
2024/01/21 07:36:48;;;;;;;25.50;11.10;;;;;;;;;;6177341;28;20049;-86
2024/01/21 07:39:54;;;;;;;29.13;11.30;;;;;;;;;;6171452;28;20158;-89
2024/01/21 07:43:07;;;;;;;32.83;14.02;;;;;;;;;;6179336;28;20045;-86
2024/01/21 07:46:16;;;;;;;28.27;11.18;;;;;;;;;;6205292;28;20052;-89
2024/01/21 07:49:27;;;;;;;26.88;10.63;;;;;;;;;;6206962;28;20042;-86
2024/01/21 07:52:42;;;;;;;24.77;10.33;;;;;;;;;;6204652;28;20057;-83
2024/01/21 07:55:54;;;;;;;23.30;8.27;;;;;;;;;;6198293;28;20554;-86
2024/01/21 07:59:12;;;;;;;56.42;21.92;;;;;;;;;;6185952;28;20449;-87
2024/01/21 08:02:31;;;;;;;21.38;10.95;;;;;;;;;;6207826;28;20049;-85
2024/01/21 08:05:43;;;;;;;23.13;10.45;;;;;;;;;;6194982;28;20056;-87
2024/01/21 08:08:53;;;;;;;24.23;11.80;;;;;;;;;;6193471;28;20054;-88
2024/01/21 08:12:14;;;;;;;27.77;13.23;;;;;;;;;;6184484;28;20053;-88
2024/01/21 08:15:33;;;;;;;27.73;12.38;;;;;;;;;;6159839;28;20052;-87
2024/01/21 08:18:48;;;;;;;24.30;10.20;;;;;;;;;;6175831;28;20049;-87
2024/01/21 08:21:58;;;;;;;29.02;11.38;;;;;;;;;;6151289;28;20136;-88
2024/01/21 08:25:07;;;;;;;23.50;10.57;;;;;;;;;;6172854;28;20057;-89
2024/01/21 08:28:17;;;;;;;26.83;11.07;;;;;;;;;;6163673;28;20041;-88
2024/01/21 08:31:28;;;;;;;24.30;12.43;;;;;;;;;;6195631;28;20052;-87
2024/01/21 08:34:42;;;;;;;32.72;15.32;;;;;;;;;;6183674;28;20049;-87
2024/01/21 08:37:47;;;;;;;39.58;19.48;;;;;;;;;;6168710;28;20064;-87
2024/01/21 08:40:53;;;;;;;30.13;15.88;;;;;;;;;;6211343;28;20065;-86
2024/01/21 08:43:59;;;;;;;26.75;12.13;;;;;;;;;;6209367;28;20452;-87
2024/01/21 08:47:16;;;;;;;23.73;10.75;;;;;;;;;;6170751;28;20079;-87
2024/01/21 08:50:23;;;;;;;26.10;11.65;;;;;;;;;;6182358;28;20060;-86
2024/01/21 08:53:30;;;;;;;27.92;12.05;;;;;;;;;;6180373;28;20061;-88
2024/01/21 08:56:38;;;;;;;24.15;10.90;;;;;;;;;;6169468;28;20049;-86
2024/01/21 08:59:57;;;;;;;26.90;12.07;;;;;;;;;;6191269;28;20553;-88
2024/01/21 09:03:04;;;;;;;35.30;12.77;;;;;;;;;;6185801;28;20066;-88
2024/01/21 09:06:41;;;;;;;25.88;11.77;;;;;;;;;;6180316;28;20045;-87
2024/01/21 09:09:57;;;;;;;26.77;10.90;;;;;;;;;;6160494;28;20153;-88
2024/01/21 09:13:10;;;;;;;31.75;14.93;;;;;;;;;;6154755;28;20553;-88
2024/01/21 09:16:19;;;;;;;;;;;;;;;;;;6164797;28;20049;-88
2024/01/21 09:19:35;;;;;;;27.33;10.93;;;;;;;;;;6176162;28;19921;-88
2024/01/21 09:22:42;;;;;;;30.52;11.95;;;;;;;;;;6168915;28;20046;-89
2024/01/21 09:25:56;;;;;;;28.02;12.93;;;;;;;;;;6161997;28;20072;-88
2024/01/21 09:29:04;;;;;;;34.70;13.90;;;;;;;;;;6163636;28;20041;-87
2024/01/21 09:32:12;;;;;;;39.33;16.70;;;;;;;;;;6170607;28;20046;-88
2024/01/21 09:35:27;;;;;;;52.45;22.45;;;;;;;;;;6128104;28;20064;-87
2024/01/21 09:38:38;;;;;;;53.80;21.80;;;;;;;;;;6163959;28;20050;-87
2024/01/21 09:41:56;;;;;;;56.55;21.23;;;;;;;;;;6184708;28;20053;-86
2024/01/21 09:45:07;;;;;;;48.53;18.58;;;;;;;;;;6167196;28;20046;-88
2024/01/21 09:48:16;;;;;;;54.65;21.73;;;;;;;;;;6157117;28;20034;-88
2024/01/21 09:51:22;;;;;;;49.03;21.40;;;;;;;;;;6224426;28;20038;-86
2024/01/21 09:54:50;;;;;;;43.45;18.58;;;;;;;;;;6212953;28;20057;-87
2024/01/21 09:58:17;;;;;;;35.20;14.05;;;;;;;;;;6209653;28;25363;-88
2024/01/21 10:01:25;;;;;;;35.08;13.65;;;;;;;;;;6201152;28;20045;-87
2024/01/21 10:04:35;;;;;;;31.98;13.52;;;;;;;;;;6198910;28;20077;-88
2024/01/21 10:11:16;;;;;;;35.97;14.48;;;;;;;;;;6202511;28;20042;-89
2024/01/21 10:14:23;;;;;;;39.28;15.88;;;;;;;;;;6153401;28;20046;-88
2024/01/21 10:17:45;;;;;;;36.53;15.20;;;;;;;;;;6164382;28;20055;-89
2024/01/21 10:20:57;;;;;;;58.08;25.90;;;;;;;;;;6214497;28;20029;-91
2024/01/21 10:24:13;;;;;;;32.42;11.65;;;;;;;;;;6134933;28;20065;-89
2024/01/21 10:28:04;;;;;;;35.83;13.77;;;;;;;;;;6198539;28;20455;-88
2024/01/21 10:31:21;;;;;;;39.83;13.50;;;;;;;;;;6164547;28;21164;-89
2024/01/21 10:34:45;;;;;;;27.77;12.63;;;;;;;;;;6171758;23;20050;-78
2024/01/21 10:37:47;;;;;;;30.60;14.25;;;;;;;;;;6166304;28;20078;-78
2024/01/21 10:40:49;;;;;;;31.15;12.50;;;;;;;;;;6158418;28;20058;-76
2024/01/21 10:43:54;;;;;;;26.80;11.45;;;;;;;;;;6164207;28;20441;-78
2024/01/21 10:46:56;;;;;;;31.98;12.50;;;;;;;;;;6168107;28;20049;-79
2024/01/21 10:49:58;;;;;;;29.20;13.38;;;;;;;;;;6145749;28;20051;-79
2024/01/21 10:53:01;;;;;;;42.70;19.23;;;;;;;;;;6171558;28;20047;-78
2024/01/21 10:56:03;;;;;;;28.20;11.25;;;;;;;;;;6170673;28;20057;-81
2024/01/21 10:59:06;;;;;;;27.17;12.02;;;;;;;;;;6162913;28;20361;-81
2024/01/21 11:02:08;;;;;;;39.40;14.75;;;;;;;;;;6175210;28;20054;-77
2024/01/21 11:05:10;;;;;;;27.50;11.10;;;;;;;;;;6170466;28;20070;-79
2024/01/21 11:08:14;;;;;;;33.78;13.93;;;;;;;;;;6174780;28;20462;-81
2024/01/21 11:11:17;;;;;;;29.45;11.93;;;;;;;;;;6167008;28;20493;-82
2024/01/21 11:14:27;;;;;;;28.95;11.65;;;;;;;;;;6173678;28;20131;-80
2024/01/21 11:17:29;;;;;;;30.92;12.45;;;;;;;;;;6182993;28;20149;-79
2024/01/21 11:20:31;;;;;;;29.25;13.02;;;;;;;;;;6169353;28;22298;-80
2024/01/21 11:23:33;;;;;;;27.77;12.05;;;;;;;;;;6172615;28;20042;-80
2024/01/21 11:26:37;;;;;;;31.02;12.73;;;;;;;;;;6147901;28;20510;-77
2024/01/21 11:29:39;;;;;;;32.45;13.50;;;;;;;;;;6166984;28;20067;-81
2024/01/21 11:32:41;;;;;;;32.47;13.57;;;;;;;;;;6169474;28;20054;-80
2024/01/21 11:35:43;;;;;;;27.38;11.13;;;;;;;;;;6167835;28;20046;-78
2024/01/21 11:38:45;;;;;;;27.70;11.40;;;;;;;;;;6171791;28;20145;-79
2024/01/21 11:41:47;;;;;;;31.88;12.55;;;;;;;;;;6155305;28;20050;-78
2024/01/21 11:44:49;;;;;;;31.83;13.30;;;;;;;;;;6193735;23;20104;-80
2024/01/21 11:47:51;;;;;;;31.63;12.57;;;;;;;;;;6221050;28;20199;-81
2024/01/21 11:50:53;;;;;;;36.70;15.13;;;;;;;;;;6212929;28;20068;-81
2024/01/21 11:53:55;;;;;;;30.48;13.18;;;;;;;;;;6198754;28;20046;-81
2024/01/21 11:56:57;;;;;;;29.38;12.07;;;;;;;;;;6199260;28;20049;-79
2024/01/21 11:59:58;;;;;;;27.23;11.63;;;;;;;;;;6195787;28;20038;-81
2024/01/21 12:03:00;;;;;;;28.65;11.80;;;;;;;;;;6192194;28;20046;-82
2024/01/21 12:06:03;;;;;;;30.70;12.27;;;;;;;;;;6194878;28;20215;-81
2024/01/21 12:09:07;;;;;;;29.83;12.75;;;;;;;;;;6201577;28;20072;-81
2024/01/21 12:12:09;;;;;;;35.75;13.73;;;;;;;;;;6176974;28;20050;-80
2024/01/21 12:15:11;;;;;;;28.83;11.65;;;;;;;;;;6194972;28;20139;-82
2024/01/21 12:18:13;;;;;;;31.63;13.27;;;;;;;;;;6188574;28;20221;-81
2024/01/21 12:21:15;;;;;;;27.92;11.65;;;;;;;;;;6194784;28;20053;-80
2024/01/21 12:24:20;;;;;;;41.90;16.92;;;;;;;;;;6190753;28;20491;-81
2024/01/21 12:27:22;;;;;;;37.45;14.90;;;;;;;;;;6201929;28;21259;-79
2024/01/21 12:30:25;;;;;;;26.02;11.95;;;;;;;;;;6183127;28;20042;-79
2024/01/21 12:33:27;;;;;;;35.17;13.80;;;;;;;;;;6192894;28;20360;-79
2024/01/21 12:36:34;;;;;;;35.08;13.73;;;;;;;;;;6191598;28;20177;-79
2024/01/21 12:39:36;;;;;;;31.10;11.95;;;;;;;;;;6203187;28;20058;-79
2024/01/21 12:42:38;;;;;;;30.63;12.52;;;;;;;;;;6192588;28;20571;-78
2024/01/21 12:45:39;;;;;;;34.05;13.82;;;;;;;;;;6198615;28;20040;-80
2024/01/21 12:48:41;;;;;;;33.42;13.88;;;;;;;;;;6180832;28;20076;-79
2024/01/21 12:51:45;;;;;;;36.50;13.60;;;;;;;;;;6190851;28;20111;-80
2024/01/21 12:54:47;;;;;;;30.85;12.52;;;;;;;;;;6190544;28;20080;-80
2024/01/21 12:57:49;;;;;;;35.17;12.73;;;;;;;;;;6181844;28;20215;-80
2024/01/21 13:00:51;;;;;;;38.28;13.65;;;;;;;;;;6179619;28;20050;-80
2024/01/21 13:03:53;;;;;;;32.13;12.80;;;;;;;;;;6183788;28;20050;-78
2024/01/21 13:06:55;;;;;;;36.30;13.38;;;;;;;;;;6195144;28;20148;-79
2024/01/21 13:09:57;;;;;;;29.50;12.07;;;;;;;;;;6192149;28;20467;-81
2024/01/21 13:12:59;;;;;;;29.95;12.45;;;;;;;;;;6190608;28;20444;-81
2024/01/21 13:16:01;;;;;;;31.00;12.20;;;;;;;;;;6200960;28;20051;-81
2024/01/21 13:19:03;;;;;;;32.47;12.05;;;;;;;;;;6202905;28;20042;-80
2024/01/21 13:22:06;;;;;;;29.17;12.30;;;;;;;;;;6186091;28;20050;-80
2024/01/21 13:25:08;;;;;;;27.05;11.18;;;;;;;;;;6197393;28;20192;-81
2024/01/21 13:31:24;;;;;;;28.52;11.45;;;;;;;;;;6188954;28;20050;-80
2024/01/21 13:34:26;;;;;;;28.08;11.55;;;;;;;;;;6201771;28;20112;-80
2024/01/21 13:37:28;;;;;;;28.20;12.90;;;;;;;;;;6190318;28;20391;-79
2024/01/21 13:40:30;;;;;;;32.88;12.65;;;;;;;;;;6195759;28;20509;-78
2024/01/21 13:43:33;;;;;;;33.70;12.63;;;;;;;;;;6186869;28;20056;-78
2024/01/21 13:46:35;;;;;;;45.40;16.33;;;;;;;;;;6201132;28;20463;-79
2024/01/21 13:49:37;;;;;;;37.72;14.50;;;;;;;;;;6185033;28;20192;-80
2024/01/21 13:52:39;;;;;;;36.72;13.75;;;;;;;;;;6207901;28;20072;-79
2024/01/21 13:55:41;;;;;;;34.88;13.20;;;;;;;;;;6192787;28;20054;-80
2024/01/21 13:58:43;;;;;;;32.63;13.15;;;;;;;;;;6202957;28;20050;-81
2024/01/21 14:01:46;;;;;;;34.65;14.00;;;;;;;;;;6209383;28;20060;-79
2024/01/21 14:05:05;;;;;;;31.13;14.10;;;;;;;;;;6183504;28;20066;-80
2024/01/21 14:08:07;;;;;;;33.17;12.80;;;;;;;;;;6203480;28;20049;-80
2024/01/21 14:11:08;;;;;;;34.97;14.88;;;;;;;;;;6201528;28;20035;-80
2024/01/21 14:14:10;;;;;;;38.13;14.32;;;;;;;;;;6198806;28;20057;-80
2024/01/21 14:17:12;;;;;;;28.15;12.93;;;;;;;;;;6188689;28;20341;-80
2024/01/21 14:20:14;;;;;;;37.45;15.38;;;;;;;;;;6178313;28;20440;-80
2024/01/21 14:23:16;;;;;;;44.22;15.77;;;;;;;;;;6204245;28;20046;-81
2024/01/21 14:26:20;;;;;;;34.33;14.25;;;;;;;;;;6217454;28;20131;-81
2024/01/21 14:29:31;;;;;;;43.20;15.10;;;;;;;;;;6213715;28;20054;-80
2024/01/21 14:32:33;;;;;;;31.75;12.80;;;;;;;;;;6191608;28;20108;-81
2024/01/21 14:35:35;;;;;;;34.08;14.45;;;;;;;;;;6188887;28;20118;-79
2024/01/21 14:38:37;;;;;;;34.08;14.05;;;;;;;;;;6213289;28;20042;-79
2024/01/21 14:41:39;;;;;;;35.55;14.50;;;;;;;;;;6197169;28;20042;-80
2024/01/21 14:44:41;;;;;;;37.75;15.73;;;;;;;;;;6185010;28;20050;-80
2024/01/21 14:47:43;;;;;;;42.28;15.63;;;;;;;;;;6185960;28;20528;-80
2024/01/21 14:50:45;;;;;;;33.45;13.30;;;;;;;;;;6202602;28;20064;-80
2024/01/21 14:53:47;;;;;;;38.33;17.15;;;;;;;;;;6200939;28;20069;-80
2024/01/21 14:56:51;;;;;;;35.10;14.88;;;;;;;;;;6196138;28;20082;-78
2024/01/21 14:59:53;;;;;;;37.72;17.67;;;;;;;;;;6193560;28;20130;-78
2024/01/21 15:02:54;;;;;;;34.88;14.00;;;;;;;;;;6204916;28;20054;-79
2024/01/21 15:05:56;;;;;;;35.47;14.98;;;;;;;;;;6198005;28;20144;-81
2024/01/21 15:08:58;;;;;;;36.00;13.60;;;;;;;;;;6198038;28;20042;-80
2024/01/21 15:12:00;;;;;;;36.30;14.10;;;;;;;;;;6194996;28;20424;-82
2024/01/21 15:15:17;;;;;;;47.25;17.50;;;;;;;;;;6194231;28;20178;-81
2024/01/21 15:18:19;;;;;;;34.95;15.02;;;;;;;;;;6187008;28;20042;-81
2024/01/21 15:21:34;;;;;;;38.60;14.75;;;;;;;;;;6197188;28;20053;-81
2024/01/21 15:24:36;;;;;;;41.42;15.00;;;;;;;;;;6217872;28;20153;-81
2024/01/21 15:27:38;;;;;;;38.00;15.48;;;;;;;;;;6196993;28;20056;-80
2024/01/21 15:30:42;;;;;;;40.20;14.68;;;;;;;;;;6194978;28;20053;-81
2024/01/21 15:33:44;;;;;;;39.33;14.63;;;;;;;;;;6195140;28;20046;-81
2024/01/21 15:36:48;;;;;;;36.03;15.18;;;;;;;;;;6188338;28;20050;-80
2024/01/21 15:39:51;;;;;;;37.00;15.05;;;;;;;;;;6195204;28;20128;-80
2024/01/21 15:42:54;;;;;;;37.92;15.00;;;;;;;;;;6197797;28;20054;-80
2024/01/21 15:45:56;;;;;;;36.05;14.60;;;;;;;;;;6190805;28;20052;-80
2024/01/21 15:48:58;;;;;;;38.10;15.40;;;;;;;;;;6185099;28;20521;-81
2024/01/21 15:52:00;;;;;;;37.33;16.58;;;;;;;;;;6203872;28;20053;-81
2024/01/21 15:55:03;;;;;;;36.03;15.27;;;;;;;;;;6194560;28;20046;-79
2024/01/21 15:58:04;;;;;;;37.22;15.02;;;;;;;;;;6178244;28;20534;-78
2024/01/21 16:01:06;;;;;;;36.90;14.60;;;;;;;;;;6193394;28;20042;-79
2024/01/21 16:04:08;;;;;;;41.50;15.68;;;;;;;;;;6192664;28;20124;-80
2024/01/21 16:07:10;;;;;;;64.85;26.95;;;;;;;;;;6195625;28;20050;-80
2024/01/21 16:10:12;;;;;;;39.28;19.45;;;;;;;;;;6198751;28;20046;-79
2024/01/21 16:13:14;;;;;;;42.15;17.17;;;;;;;;;;6194039;28;20045;-79
2024/01/21 16:16:24;;;;;;;82.40;37.35;;;;;;;;;;6191857;28;20050;-81
2024/01/21 16:19:26;;;;;;;86.28;30.67;;;;;;;;;;6196932;28;20045;-81
2024/01/21 16:22:29;;;;;;;90.32;30.63;;;;;;;;;;6204033;28;20432;-80
2024/01/21 16:25:34;;;;;;;82.07;28.85;;;;;;;;;;6198903;28;20049;-80
2024/01/21 16:28:36;;;;;;;63.22;24.25;;;;;;;;;;6190365;28;20496;-80
2024/01/21 16:31:38;;;;;;;69.97;31.75;;;;;;;;;;6205856;28;20050;-81
2024/01/21 16:34:40;;;;;;;43.03;20.98;;;;;;;;;;6204392;28;20065;-81
2024/01/21 16:38:00;;;;;;;49.38;18.88;;;;;;;;;;6199528;28;20050;-79
2024/01/21 16:41:03;;;;;;;42.30;17.73;;;;;;;;;;6197011;28;20096;-81
2024/01/21 16:44:06;;;;;;;49.08;21.38;;;;;;;;;;6197049;28;20042;-82
2024/01/21 16:47:08;;;;;;;49.80;22.63;;;;;;;;;;6198052;28;20500;-80
2024/01/21 16:50:10;;;;;;;43.80;19.10;;;;;;;;;;6191810;28;20540;-79
2024/01/21 16:53:23;;;;;;;41.30;16.02;;;;;;;;;;6209820;28;20064;-80
2024/01/21 16:56:27;;;;;;;43.00;16.65;;;;;;;;;;6200294;28;20209;-79
2024/01/21 16:59:32;;;;;;;40.50;17.75;;;;;;;;;;6202711;28;20054;-79
2024/01/21 17:02:34;;;;;;;47.88;17.73;;;;;;;;;;6210738;28;20164;-79
2024/01/21 17:05:36;;;;;;;32.42;14.85;;;;;;;;;;6210297;28;20041;-79
2024/01/21 17:08:38;;;;;;;33.40;14.65;;;;;;;;;;6220886;28;20049;-78
2024/01/21 17:11:49;;;;;;;40.22;15.90;;;;;;;;;;6200927;28;20046;-81
2024/01/21 17:14:50;;;;;;;43.78;18.77;;;;;;;;;;6206854;28;20527;-81
2024/01/21 17:17:56;;;;;;;46.55;20.95;;;;;;;;;;6194532;28;20054;-80
2024/01/21 17:20:58;;;;;;;51.13;21.35;;;;;;;;;;6216478;28;20481;-81
2024/01/21 17:24:02;;;;;;;38.60;16.65;;;;;;;;;;6229943;28;20046;-79
2024/01/21 17:27:04;;;;;;;43.38;17.00;;;;;;;;;;6200872;28;20046;-79
2024/01/21 17:30:06;;;;;;;38.67;17.33;;;;;;;;;;6216460;28;20046;-81
2024/01/21 17:33:11;;;;;;;42.83;19.37;;;;;;;;;;6173818;28;20497;-80
2024/01/21 17:36:14;;;;;;;47.72;18.38;;;;;;;;;;6195686;28;20444;-81
2024/01/21 17:39:16;;;;;;;45.83;20.58;;;;;;;;;;6182581;23;20050;-81
2024/01/21 17:42:18;;;;;;;50.85;24.92;;;;;;;;;;6151492;28;20055;-81
2024/01/21 17:45:21;;;;;;;64.78;25.75;;;;;;;;;;6147631;28;20074;-81
2024/01/21 17:48:23;;;;;;;49.53;20.33;;;;;;;;;;6138935;28;20051;-80
2024/01/21 17:51:25;;;;;;;55.90;22.50;;;;;;;;;;6154934;28;20050;-80
2024/01/21 17:54:27;;;;;;;49.80;23.10;;;;;;;;;;6162657;28;20524;-81
2024/01/21 17:57:33;;;;;;;43.13;16.75;;;;;;;;;;6165209;28;20058;-79
2024/01/21 18:00:35;;;;;;;43.55;18.13;;;;;;;;;;6149065;28;20073;-80
2024/01/21 18:03:39;;;;;;;43.78;18.95;;;;;;;;;;6152285;28;20051;-82
2024/01/21 18:06:41;;;;;;;39.22;17.42;;;;;;;;;;6147655;28;20043;-81
2024/01/21 18:09:43;;;;;;;41.43;16.27;;;;;;;;;;6151674;28;20425;-80